createdAt,value
2018-01-23T00:00:16.760Z,7.20
2018-01-23T00:02:57.927Z,7.20
2018-01-23T00:05:24.207Z,7.20
2018-01-23T00:07:50.793Z,7.20
2018-01-23T00:10:17.111Z,7.20
2018-01-23T00:12:44.486Z,7.20
2018-01-23T00:15:10.758Z,7.20
2018-01-23T00:17:37.982Z,7.30
2018-01-23T00:20:04.242Z,7.30
2018-01-23T00:22:30.482Z,7.30
2018-01-23T00:24:56.715Z,7.20
2018-01-23T00:27:22.975Z,7.20
2018-01-23T00:29:49.298Z,7.20
2018-01-23T00:32:15.560Z,7.20
2018-01-23T00:34:42.883Z,7.10
2018-01-23T00:37:09.178Z,7.10
2018-01-23T00:39:35.535Z,7.10
2018-01-23T00:42:01.762Z,7.10
2018-01-23T00:44:28.011Z,7.10
2018-01-23T00:46:54.998Z,7.10
2018-01-23T00:49:21.303Z,7.10
2018-01-23T00:51:48.275Z,7.20
2018-01-23T00:54:14.591Z,7.10
2018-01-23T00:56:41.559Z,7.10
2018-01-23T00:59:07.862Z,7.10
2018-01-23T01:01:34.119Z,7.10
2018-01-23T01:04:00.411Z,7.00
2018-01-23T01:06:26.663Z,7.00
2018-01-23T01:08:53.635Z,6.90
2018-01-23T01:11:19.891Z,6.90
2018-01-23T01:13:46.131Z,6.90
2018-01-23T01:16:12.395Z,6.90
2018-01-23T01:18:38.614Z,6.90
2018-01-23T01:21:05.050Z,6.80
2018-01-23T01:23:31.291Z,6.90
2018-01-23T01:25:57.527Z,6.90
2018-01-23T01:28:24.522Z,6.90
2018-01-23T01:30:50.787Z,6.90
2018-01-23T01:33:17.022Z,6.90
2018-01-23T01:35:43.246Z,6.90
2018-01-23T01:38:09.496Z,6.90
2018-01-23T01:40:35.708Z,6.90
2018-01-23T01:43:02.210Z,6.90
2018-01-23T01:45:28.460Z,6.90
2018-01-23T01:47:55.137Z,6.90
2018-01-23T01:50:21.387Z,6.90
2018-01-23T01:52:47.699Z,6.90
2018-01-23T01:55:13.975Z,7.00
2018-01-23T01:57:40.280Z,6.90
2018-01-23T02:00:07.306Z,6.80
2018-01-23T02:02:33.582Z,6.90
2018-01-23T02:04:59.882Z,6.80
2018-01-23T02:07:26.159Z,6.80
2018-01-23T02:09:52.439Z,6.80
2018-01-23T02:12:18.688Z,6.80
2018-01-23T02:14:44.959Z,6.70
2018-01-23T02:17:11.215Z,6.70
2018-01-23T02:19:37.506Z,6.70
2018-01-23T02:22:03.837Z,6.80
2018-01-23T02:24:30.115Z,6.70
2018-01-23T02:26:56.362Z,6.80
2018-01-23T02:29:22.620Z,6.80
2018-01-23T02:31:49.423Z,6.80
2018-01-23T02:34:15.675Z,6.80
2018-01-23T02:36:42.679Z,6.60
2018-01-23T02:39:08.935Z,6.60
2018-01-23T02:41:35.199Z,6.60
2018-01-23T02:44:01.471Z,6.60
2018-01-23T02:46:28.491Z,6.60
2018-01-23T02:48:55.219Z,6.60
2018-01-23T02:51:21.481Z,6.60
2018-01-23T02:53:47.846Z,6.60
2018-01-23T02:56:14.159Z,6.60
2018-01-23T02:58:40.580Z,6.60
2018-01-23T03:01:06.842Z,6.70
2018-01-23T03:03:33.167Z,6.70
2018-01-23T03:05:59.435Z,6.70
2018-01-23T03:08:26.139Z,6.70
2018-01-23T03:10:52.390Z,6.80
2018-01-23T03:13:18.824Z,6.80
2018-01-23T03:15:45.051Z,6.80
2018-01-23T03:18:12.050Z,6.80
2018-01-23T03:20:38.343Z,6.80
2018-01-23T03:23:04.596Z,6.80
2018-01-23T03:25:31.134Z,6.80
2018-01-23T03:27:57.396Z,6.90
2018-01-23T03:30:23.676Z,6.90
2018-01-23T03:32:50.674Z,6.90
2018-01-23T03:35:17.106Z,6.90
2018-01-23T03:37:43.375Z,6.90
2018-01-23T03:40:10.075Z,6.90
2018-01-23T03:42:36.343Z,6.90
2018-01-23T03:45:03.356Z,6.90
2018-01-23T03:47:29.608Z,6.90
2018-01-23T03:49:55.919Z,6.90
2018-01-23T03:52:22.174Z,6.90
2018-01-23T03:54:49.162Z,6.90
2018-01-23T03:57:17.059Z,6.90
2018-01-23T03:59:43.314Z,6.90
2018-01-23T04:02:09.591Z,6.90
2018-01-23T04:04:35.848Z,6.90
2018-01-23T04:07:02.106Z,6.90
2018-01-23T04:09:29.148Z,6.90
2018-01-23T04:11:55.426Z,6.90
2018-01-23T04:14:22.423Z,6.90
2018-01-23T04:16:51.260Z,6.90
2018-01-23T04:19:17.702Z,6.90
2018-01-23T04:21:44.628Z,6.90
2018-01-23T04:24:11.304Z,6.90
2018-01-23T04:26:37.571Z,7.00
2018-01-23T04:29:03.852Z,7.00
2018-01-23T04:31:30.103Z,6.90
2018-01-23T04:33:56.391Z,6.90
2018-01-23T04:36:22.678Z,6.90
2018-01-23T04:38:48.979Z,6.90
2018-01-23T04:41:18.063Z,6.90
2018-01-23T04:43:45.072Z,7.00
2018-01-23T04:46:11.346Z,6.90
2018-01-23T04:48:37.634Z,6.90
2018-01-23T04:51:04.592Z,6.90
2018-01-23T04:53:31.761Z,6.80
2018-01-23T04:55:59.292Z,6.80
2018-01-23T04:58:27.483Z,6.80
2018-01-23T05:00:53.727Z,6.80
2018-01-23T05:03:19.991Z,6.80
2018-01-23T05:05:47.004Z,6.80
2018-01-23T05:08:13.251Z,6.80
2018-01-23T05:10:39.711Z,6.80
2018-01-23T05:13:05.984Z,6.80
2018-01-23T05:15:32.214Z,6.80
2018-01-23T05:17:58.463Z,6.80
2018-01-23T05:20:24.759Z,6.80
2018-01-23T05:22:51.035Z,6.80
2018-01-23T05:25:17.286Z,6.90
2018-01-23T05:27:43.590Z,6.80
2018-01-23T05:30:09.834Z,6.80
2018-01-23T05:32:36.070Z,6.80
2018-01-23T05:35:02.523Z,6.80
2018-01-23T05:37:28.771Z,6.80
2018-01-23T05:39:55.374Z,6.80
2018-01-23T05:42:21.607Z,6.80
2018-01-23T05:44:47.866Z,6.80
2018-01-23T05:47:14.120Z,6.80
2018-01-23T05:49:40.414Z,6.80
2018-01-23T05:52:06.675Z,6.80
2018-01-23T05:54:33.163Z,6.80
2018-01-23T05:57:04.152Z,6.90
2018-01-23T05:59:30.427Z,6.80
2018-01-23T06:01:56.798Z,6.80
2018-01-23T06:04:23.082Z,6.90
2018-01-23T06:06:49.600Z,6.90
2018-01-23T06:09:15.985Z,6.90
2018-01-23T06:11:42.303Z,6.90
2018-01-23T06:14:09.298Z,6.90
2018-01-23T06:16:35.580Z,6.90
2018-01-23T06:19:02.584Z,6.90
2018-01-23T06:21:28.859Z,6.90
2018-01-23T06:23:55.219Z,6.90
2018-01-23T06:26:21.483Z,6.90
2018-01-23T06:28:47.711Z,6.80
2018-01-23T06:31:15.067Z,6.90
2018-01-23T06:33:41.373Z,6.80
2018-01-23T06:36:07.641Z,6.80
2018-01-23T06:38:33.975Z,6.90
2018-01-23T06:41:00.194Z,6.90
2018-01-23T06:43:26.523Z,6.90
2018-01-23T06:45:52.787Z,7.00
2018-01-23T06:48:19.971Z,6.90
2018-01-23T06:50:46.235Z,7.00
2018-01-23T06:53:12.523Z,7.00
2018-01-23T06:55:38.783Z,6.90
2018-01-23T06:58:05.063Z,7.00
2018-01-23T07:00:31.460Z,7.00
2018-01-23T07:02:57.731Z,7.00
2018-01-23T07:05:24.004Z,7.10
2018-01-23T07:07:50.241Z,7.10
2018-01-23T07:10:16.521Z,7.00
2018-01-23T07:12:42.823Z,7.10
2018-01-23T07:15:09.094Z,7.10
2018-01-23T07:17:36.079Z,7.20
2018-01-23T07:20:02.821Z,7.10
2018-01-23T07:22:29.063Z,7.10
2018-01-23T07:24:55.458Z,7.20
2018-01-23T07:27:21.698Z,7.20
2018-01-23T07:29:47.951Z,7.10
2018-01-23T07:32:15.203Z,7.20
2018-01-23T07:34:41.439Z,7.10
2018-01-23T07:37:07.716Z,7.20
2018-01-23T07:39:33.955Z,7.20
2018-01-23T07:42:00.280Z,7.10
2018-01-23T07:44:26.643Z,7.20
2018-01-23T07:46:53.914Z,7.10
2018-01-23T07:49:20.370Z,7.10
2018-01-23T07:51:46.715Z,7.20
2018-01-23T07:54:12.956Z,7.20
2018-01-23T07:56:40.177Z,7.20
2018-01-23T07:59:06.672Z,7.30
2018-01-23T08:01:32.958Z,7.30
2018-01-23T08:03:59.174Z,7.20
2018-01-23T08:06:25.438Z,7.20
2018-01-23T08:08:51.698Z,7.20
2018-01-23T08:11:18.015Z,7.20
2018-01-23T08:13:47.527Z,7.30
2018-01-23T08:16:15.503Z,7.40
2018-01-23T08:18:41.859Z,7.40
2018-01-23T08:21:08.844Z,7.50
2018-01-23T08:23:35.102Z,7.40
2018-01-23T08:26:01.547Z,7.40
2018-01-23T08:28:28.550Z,7.50
2018-01-23T08:30:54.803Z,7.50
2018-01-23T08:33:21.067Z,7.50
2018-01-23T08:35:48.275Z,7.60
2018-01-23T08:38:14.571Z,7.60
2018-01-23T08:40:41.118Z,7.60
2018-01-23T08:43:07.352Z,7.60
2018-01-23T08:45:37.482Z,7.60
2018-01-23T08:48:03.852Z,7.70
2018-01-23T08:50:30.222Z,7.70
2018-01-23T08:52:56.467Z,7.70
2018-01-23T08:55:22.782Z,7.70
2018-01-23T08:57:49.068Z,7.70
2018-01-23T09:00:15.395Z,7.70
2018-01-23T09:02:41.658Z,7.70
2018-01-23T09:05:08.702Z,7.70
2018-01-23T09:07:35.102Z,7.80
2018-01-23T09:10:01.331Z,7.80
2018-01-23T09:12:27.623Z,7.80
2018-01-23T09:14:54.664Z,7.80
2018-01-23T09:17:20.953Z,7.80
2018-01-23T09:19:47.180Z,7.90
2018-01-23T09:22:13.631Z,7.90
2018-01-23T09:24:39.967Z,8.00
2018-01-23T09:27:06.230Z,8.00
2018-01-23T09:29:33.402Z,8.00
2018-01-23T09:32:00.407Z,8.10
2018-01-23T09:34:26.890Z,8.10
2018-01-23T09:36:53.138Z,8.10
2018-01-23T09:39:19.431Z,8.10
2018-01-23T09:41:46.423Z,8.20
2018-01-23T09:44:12.674Z,8.20
2018-01-23T09:46:38.977Z,8.40
2018-01-23T09:49:05.268Z,8.40
2018-01-23T09:51:31.511Z,8.50
2018-01-23T09:53:58.495Z,8.60
2018-01-23T09:56:24.755Z,8.60
2018-01-23T09:58:51.013Z,8.70
2018-01-23T10:01:18.022Z,8.80
2018-01-23T10:03:44.339Z,8.80
2018-01-23T10:06:10.637Z,8.90
2018-01-23T10:08:36.876Z,8.90
2018-01-23T10:11:03.267Z,9.10
2018-01-23T10:13:29.551Z,9.10
2018-01-23T10:15:55.835Z,9.00
2018-01-23T10:18:22.299Z,8.90
2018-01-23T10:20:48.535Z,8.90
2018-01-23T10:23:14.891Z,8.90
2018-01-23T10:25:41.295Z,8.70
2018-01-23T10:28:07.867Z,8.70
2018-01-23T10:30:34.131Z,8.70
2018-01-23T10:33:00.442Z,8.80
2018-01-23T10:35:26.691Z,8.80
2018-01-23T10:37:53.063Z,8.90
2018-01-23T10:40:19.343Z,9.00
2018-01-23T10:42:45.611Z,9.00
2018-01-23T10:45:12.080Z,9.00
2018-01-23T10:47:41.190Z,9.00
2018-01-23T10:50:07.434Z,9.00
2018-01-23T10:52:33.707Z,9.10
2018-01-23T10:55:00.028Z,9.20
2018-01-23T10:57:26.299Z,9.10
2018-01-23T10:59:52.526Z,9.20
2018-01-23T11:02:18.760Z,9.20
2018-01-23T11:04:45.027Z,9.20
2018-01-23T11:07:11.327Z,9.20
2018-01-23T11:09:37.604Z,9.20
2018-01-23T11:12:03.835Z,9.10
2018-01-23T11:14:30.083Z,9.10
2018-01-23T11:16:56.308Z,9.10
2018-01-23T11:19:23.382Z,9.20
2018-01-23T11:21:49.644Z,9.20
2018-01-23T11:24:15.922Z,9.30
2018-01-23T11:26:42.189Z,9.40
2018-01-23T11:29:08.487Z,9.50
2018-01-23T11:31:34.763Z,9.40
2018-01-23T11:34:01.044Z,9.40
2018-01-23T11:36:27.358Z,9.40
2018-01-23T11:38:53.578Z,9.60
2018-01-23T11:41:19.830Z,9.60
2018-01-23T11:43:46.075Z,9.50
2018-01-23T11:46:13.086Z,9.60
2018-01-23T11:48:39.330Z,9.70
2018-01-23T11:51:05.587Z,9.70
2018-01-23T11:53:31.845Z,9.80
2018-01-23T11:55:58.110Z,9.70
2018-01-23T11:58:24.567Z,9.80
2018-01-23T12:00:51.443Z,9.80
2018-01-23T12:03:17.719Z,9.80
2018-01-23T12:05:44.547Z,9.90
2018-01-23T12:08:10.827Z,10.00
2018-01-23T12:10:37.976Z,10.10
2018-01-23T12:13:04.279Z,10.10
2018-01-23T12:15:31.026Z,10.10
2018-01-23T12:17:57.312Z,10.10
2018-01-23T12:20:23.644Z,10.10
2018-01-23T12:22:50.935Z,10.10
2018-01-23T12:25:17.211Z,10.10
2018-01-23T12:27:43.507Z,10.30
2018-01-23T12:30:10.169Z,10.30
2018-01-23T12:32:36.440Z,10.50
2018-01-23T12:35:02.703Z,10.50
2018-01-23T12:37:28.947Z,10.70
2018-01-23T12:39:55.322Z,10.60
2018-01-23T12:42:21.558Z,10.50
2018-01-23T12:44:49.460Z,10.40
2018-01-23T12:47:15.718Z,10.40
2018-01-23T12:49:41.979Z,10.30
2018-01-23T12:52:08.230Z,10.30
2018-01-23T12:54:34.494Z,10.30
2018-01-23T12:57:00.812Z,10.30
2018-01-23T12:59:41.841Z,10.30
2018-01-23T13:02:08.068Z,10.40
2018-01-23T13:04:35.075Z,10.70
2018-01-23T13:07:01.661Z,10.70
2018-01-23T13:09:28.977Z,10.50
2018-01-23T13:11:55.258Z,10.50
2018-01-23T13:14:22.531Z,10.90
2018-01-23T13:16:48.867Z,10.90
2018-01-23T13:19:15.130Z,11.30
2018-01-23T13:21:41.418Z,11.40
2018-01-23T13:24:09.147Z,11.50
2018-01-23T13:26:36.116Z,11.50
2018-01-23T13:29:02.442Z,11.60
2018-01-23T13:31:29.447Z,11.70
2018-01-23T13:33:55.699Z,11.60
2018-01-23T13:36:21.954Z,11.70
2018-01-23T13:38:48.223Z,11.50
2018-01-23T13:41:14.459Z,11.50
2018-01-23T13:43:40.721Z,11.60
2018-01-23T13:46:06.982Z,11.70
2018-01-23T13:48:36.166Z,11.80
2018-01-23T13:51:02.404Z,12.00
2018-01-23T13:53:28.903Z,12.30
2018-01-23T13:55:55.159Z,12.30
2018-01-23T13:58:21.449Z,12.20
2018-01-23T14:00:47.698Z,12.00
2018-01-23T14:03:13.962Z,12.10
2018-01-23T14:05:40.199Z,12.30
2018-01-23T14:08:07.236Z,12.40
2018-01-23T14:10:33.483Z,12.40
2018-01-23T14:13:00.486Z,12.20
2018-01-23T14:15:26.763Z,12.20
2018-01-23T14:17:54.175Z,11.80
2018-01-23T14:20:20.902Z,11.80
2018-01-23T14:22:47.430Z,11.70
2018-01-23T14:25:13.703Z,11.70
2018-01-23T14:27:40.048Z,11.60
2018-01-23T14:30:06.287Z,11.60
2018-01-23T14:32:32.523Z,11.60
2018-01-23T14:34:59.515Z,11.40
2018-01-23T14:37:25.807Z,11.30
2018-01-23T14:39:52.058Z,11.30
2018-01-23T14:42:18.323Z,11.20
2018-01-23T14:44:44.858Z,11.10
2018-01-23T14:47:11.111Z,11.10
2018-01-23T14:49:37.886Z,11.10
2018-01-23T14:52:04.686Z,10.90
2018-01-23T14:54:30.954Z,10.90
2018-01-23T14:56:57.214Z,11.00
2018-01-23T14:59:23.446Z,11.10
2018-01-23T15:01:49.712Z,11.10
2018-01-23T15:04:16.584Z,11.10
2018-01-23T15:06:42.827Z,11.10
2018-01-23T15:09:09.122Z,11.10
2018-01-23T15:11:35.394Z,10.90
2018-01-23T15:14:01.726Z,10.80
2018-01-23T15:16:27.968Z,10.60
2018-01-23T15:18:54.954Z,10.30
2018-01-23T15:21:21.194Z,10.30
2018-01-23T15:23:47.841Z,10.30
2018-01-23T15:26:14.090Z,10.30
2018-01-23T15:28:41.131Z,10.20
2018-01-23T15:31:07.450Z,10.10
2018-01-23T15:33:33.691Z,10.10
2018-01-23T15:36:00.886Z,10.00
2018-01-23T15:38:27.126Z,10.00
2018-01-23T15:40:53.382Z,10.00
2018-01-23T15:43:19.622Z,10.00
2018-01-23T15:45:45.882Z,9.90
2018-01-23T15:48:12.186Z,9.90
2018-01-23T15:50:38.550Z,9.90
2018-01-23T15:53:05.539Z,9.80
2018-01-23T15:55:31.775Z,9.80
2018-01-23T15:57:58.562Z,9.80
2018-01-23T16:00:24.814Z,9.70
2018-01-23T16:02:51.521Z,9.80
2018-01-23T16:05:17.840Z,9.70
2018-01-23T16:07:44.111Z,9.80
2018-01-23T16:10:11.159Z,9.70
2018-01-23T16:12:37.411Z,9.70
2018-01-23T16:15:03.656Z,9.60
2018-01-23T16:17:30.147Z,9.70
2018-01-23T16:19:56.378Z,9.90
2018-01-23T16:22:22.618Z,9.90
2018-01-23T16:24:48.867Z,9.80
2018-01-23T16:27:15.111Z,9.80
2018-01-23T16:29:41.396Z,9.70
2018-01-23T16:32:07.638Z,9.70
2018-01-23T16:34:33.891Z,9.70
2018-01-23T16:37:00.170Z,9.70
2018-01-23T16:39:26.423Z,9.70
2018-01-23T16:41:52.678Z,9.60
2018-01-23T16:44:19.659Z,9.60
2018-01-23T16:46:45.911Z,9.60
2018-01-23T16:49:12.159Z,9.60
2018-01-23T16:51:38.411Z,9.60
2018-01-23T16:54:05.426Z,9.60
2018-01-23T16:56:31.704Z,9.60
2018-01-23T16:58:57.992Z,9.60
2018-01-23T17:01:24.702Z,9.60
2018-01-23T17:03:51.023Z,9.60
2018-01-23T17:06:17.259Z,9.50
2018-01-23T17:08:43.536Z,9.50
2018-01-23T17:11:10.730Z,9.50
2018-01-23T17:13:37.330Z,9.50
2018-01-23T17:16:03.571Z,9.50
2018-01-23T17:18:29.934Z,9.50
2018-01-23T17:20:56.190Z,9.60
2018-01-23T17:23:22.430Z,9.50
2018-01-23T17:25:48.684Z,9.60
2018-01-23T17:28:14.911Z,9.60
2018-01-23T17:30:41.171Z,9.60
2018-01-23T17:33:07.403Z,9.60
2018-01-23T17:35:34.154Z,9.60
2018-01-23T17:38:00.402Z,9.50
2018-01-23T17:40:26.651Z,9.60
2018-01-23T17:42:52.980Z,9.50
2018-01-23T17:45:19.231Z,9.50
2018-01-23T17:47:45.650Z,9.60
2018-01-23T17:50:11.911Z,9.60
2018-01-23T17:52:38.919Z,9.60
2018-01-23T17:55:05.150Z,9.60
2018-01-23T17:57:31.434Z,9.60
2018-01-23T17:59:57.675Z,9.60
2018-01-23T18:02:23.918Z,9.60
2018-01-23T18:04:50.155Z,9.60
2018-01-23T18:07:16.446Z,9.50
2018-01-23T18:09:42.694Z,9.50
2018-01-23T18:12:08.946Z,9.50
2018-01-23T18:14:35.240Z,9.50
2018-01-23T18:17:01.471Z,9.50
2018-01-23T18:19:29.812Z,9.50
2018-01-23T18:21:56.108Z,9.40
2018-01-23T18:24:23.078Z,9.40
2018-01-23T18:26:49.467Z,9.40
2018-01-23T18:29:16.475Z,9.40
2018-01-23T18:31:42.730Z,9.40
2018-01-23T18:34:08.958Z,9.40
2018-01-23T18:36:35.235Z,9.30
2018-01-23T18:39:01.459Z,9.30
2018-01-23T18:41:27.735Z,9.30
2018-01-23T18:43:54.024Z,9.40
2018-01-23T18:46:20.331Z,9.40
2018-01-23T18:48:47.342Z,9.40
2018-01-23T18:51:13.712Z,9.40
2018-01-23T18:53:42.247Z,9.40
2018-01-23T18:56:08.492Z,9.40
2018-01-23T18:58:34.803Z,9.40
2018-01-23T19:01:01.464Z,9.40
2018-01-23T19:03:27.731Z,9.40
2018-01-23T19:05:53.993Z,9.50
2018-01-23T19:08:21.023Z,9.50
2018-01-23T19:10:48.022Z,9.40
2018-01-23T19:13:14.250Z,9.40
2018-01-23T19:15:40.554Z,9.50
2018-01-23T19:18:06.819Z,9.50
2018-01-23T19:20:33.076Z,9.50
2018-01-23T19:22:59.331Z,9.50
2018-01-23T19:25:26.455Z,9.50
2018-01-23T19:27:52.719Z,9.40
2018-01-23T19:30:19.031Z,9.40
2018-01-23T19:32:45.275Z,9.50
2018-01-23T19:35:12.277Z,9.50
2018-01-23T19:37:38.613Z,9.50
2018-01-23T19:40:05.315Z,9.50
2018-01-23T19:42:31.628Z,9.50
2018-01-23T19:44:58.043Z,9.50
2018-01-23T19:47:24.279Z,9.50
2018-01-23T19:49:50.591Z,9.60
2018-01-23T19:52:16.860Z,9.50
2018-01-23T19:54:43.094Z,9.60
2018-01-23T19:57:10.108Z,9.60
2018-01-23T19:59:37.423Z,9.60
2018-01-23T20:02:03.674Z,9.70
2018-01-23T20:04:29.907Z,9.70
2018-01-23T20:06:56.171Z,9.70
2018-01-23T20:09:22.424Z,9.70
2018-01-23T20:11:48.727Z,9.70
2018-01-23T20:14:14.998Z,9.70
2018-01-23T20:16:41.231Z,9.70
2018-01-23T20:19:07.564Z,9.70
2018-01-23T20:21:34.572Z,9.80
2018-01-23T20:24:02.088Z,9.80
2018-01-23T20:26:29.367Z,9.90
2018-01-23T20:28:57.206Z,9.80
2018-01-23T20:31:27.807Z,9.90
2018-01-23T20:33:55.823Z,9.80
2018-01-23T20:36:22.058Z,9.90
2018-01-23T20:38:48.319Z,9.90
2018-01-23T20:41:14.562Z,9.90
2018-01-23T20:43:40.802Z,9.90
2018-01-23T20:46:07.782Z,9.90
2018-01-23T20:48:34.139Z,9.90
2018-01-23T20:51:00.366Z,9.80
2018-01-23T20:53:26.650Z,9.90
2018-01-23T20:55:53.948Z,9.80
2018-01-23T20:58:20.194Z,9.80
2018-01-23T21:00:46.445Z,9.80
2018-01-23T21:03:12.862Z,9.70
2018-01-23T21:05:39.107Z,9.70
2018-01-23T21:08:05.391Z,9.60
2018-01-23T21:10:31.643Z,9.70
2018-01-23T21:12:57.891Z,9.60
2018-01-23T21:15:24.951Z,9.50
2018-01-23T21:17:51.343Z,9.40
2018-01-23T21:20:17.598Z,9.40
2018-01-23T21:22:43.828Z,9.40
2018-01-23T21:25:10.076Z,9.40
2018-01-23T21:27:36.331Z,9.40
2018-01-23T21:30:03.345Z,9.40
2018-01-23T21:32:29.779Z,9.40
2018-01-23T21:34:56.004Z,9.40
2018-01-23T21:37:22.417Z,9.40
2018-01-23T21:39:48.652Z,9.40
2018-01-23T21:42:15.024Z,9.50
2018-01-23T21:44:41.276Z,9.50
2018-01-23T21:47:08.114Z,9.50
2018-01-23T21:49:34.358Z,9.50
2018-01-23T21:52:00.651Z,9.60
2018-01-23T21:54:26.878Z,9.70
2018-01-23T21:56:53.132Z,9.70
2018-01-23T21:59:19.375Z,9.80
2018-01-23T22:01:45.607Z,9.90
2018-01-23T22:04:11.866Z,9.90
2018-01-23T22:06:38.134Z,9.90
2018-01-23T22:09:04.484Z,10.00
2018-01-23T22:11:30.727Z,10.00
2018-01-23T22:13:57.204Z,10.00
2018-01-23T22:16:23.490Z,10.00
2018-01-23T22:18:50.504Z,10.10
2018-01-23T22:21:16.917Z,10.10
2018-01-23T22:23:43.198Z,10.10
2018-01-23T22:26:09.548Z,10.10
2018-01-23T22:28:35.798Z,10.20
2018-01-23T22:31:02.276Z,10.20
2018-01-23T22:33:28.520Z,10.20
2018-01-23T22:35:55.355Z,10.20
2018-01-23T22:38:21.677Z,10.10
2018-01-23T22:40:47.935Z,10.30
2018-01-23T22:43:14.172Z,10.30
2018-01-23T22:45:40.443Z,10.30
2018-01-23T22:48:06.703Z,10.30
2018-01-23T22:50:33.706Z,10.30
2018-01-23T22:53:00.003Z,10.30
2018-01-23T22:55:26.267Z,10.40
2018-01-23T22:57:53.180Z,10.40
2018-01-23T23:00:19.450Z,10.40
2018-01-23T23:02:45.691Z,10.40
2018-01-23T23:05:11.939Z,10.50
2018-01-23T23:07:38.204Z,10.50
2018-01-23T23:10:05.204Z,10.50
2018-01-23T23:12:31.488Z,10.50
2018-01-23T23:14:57.737Z,10.50
2018-01-23T23:17:24.003Z,10.50
2018-01-23T23:19:50.246Z,10.50
2018-01-23T23:22:16.500Z,10.50
2018-01-23T23:24:42.763Z,10.50
2018-01-23T23:27:09.021Z,10.50
2018-01-23T23:29:35.259Z,10.50
2018-01-23T23:32:01.498Z,10.50
2018-01-23T23:34:27.768Z,10.60
2018-01-23T23:36:54.000Z,10.50
2018-01-23T23:39:22.210Z,10.60
2018-01-23T23:41:48.455Z,10.50
2018-01-23T23:44:14.827Z,10.60
2018-01-23T23:46:41.071Z,10.60
2018-01-23T23:49:07.327Z,10.60
2018-01-23T23:51:33.560Z,10.60
2018-01-23T23:53:59.839Z,10.60
2018-01-23T23:56:26.907Z,10.60
2018-01-23T23:58:53.248Z,10.60
